5WI2 weather

Plainfield International Airport
Plainfield, Wisconsin, United States

Public forecast

Using degrees Fahrenheit for public forecast. Weather courtesy of forecast.io.

Closest aviation weather report (METAR) to Plainfield International Airport

Closest report is Wautoma Municipal Airport, 13.6 nm (25.2 km) SE. Retrieved 2019/10/17 23:56 UTC (45 minutes ago):

KY50 172356Z AUTO 00000KT 10SM OVC031 06/04 A3001 RMK AO2 SLP168 T00610044 10100 20061 55001

Closest aviation forecast (TAF) to Plainfield International Airport

Closest forecast is Central Wisconsin Airport, 34.1 nm (63.2 km) NNW. Retrieved 2019-10-18 00:06 UTC (35 minutes ago):

TAF COR KCWA 180004Z 1800/1824 VRB03KT P6SM SCT040 FM181500 15011G19KT P6SM BKN250 FM181800 15012G21KT P6SM SCT050 BKN150